createdAt,value
2022-12-19T00:00:50.323Z,98421.75
2022-12-19T00:03:26.687Z,98422.27
2022-12-19T00:05:54.505Z,98421.85
2022-12-19T00:08:22.194Z,98421.42
2022-12-19T00:10:59.485Z,98420.02
2022-12-19T00:13:33.646Z,98420.98
2022-12-19T00:16:13.563Z,98420.95
2022-12-19T00:18:43.032Z,98419.31
2022-12-19T00:21:13.316Z,98419.55
2022-12-19T00:23:41.369Z,98416.86
2022-12-19T00:26:12.898Z,98420.60
2022-12-19T00:28:43.117Z,98417.91
2022-12-19T00:31:11.805Z,98420.70
2022-12-19T00:33:43.294Z,98417.10
2022-12-19T00:36:20.967Z,98416.31
2022-12-19T00:38:53.324Z,98418.94
2022-12-19T00:41:25.539Z,98424.27
2022-12-19T00:43:57.058Z,98423.48
2022-12-19T00:46:26.033Z,98418.52
2022-12-19T00:48:54.571Z,98416.30
2022-12-19T00:51:25.046Z,98419.73
2022-12-19T00:53:55.305Z,98421.25
2022-12-19T00:56:59.931Z,98422.27
2022-12-19T00:59:29.889Z,98423.08
2022-12-19T01:02:03.125Z,98425.47
2022-12-19T01:04:35.662Z,98419.36
2022-12-19T01:07:12.226Z,98419.08
2022-12-19T01:09:40.131Z,98418.20
2022-12-19T01:12:26.992Z,98421.14
2022-12-19T01:14:57.725Z,98423.61
2022-12-19T01:17:43.616Z,98421.27
2022-12-19T01:20:16.453Z,98422.15
2022-12-19T01:22:45.590Z,98419.65
2022-12-19T01:25:15.152Z,98422.91
2022-12-19T01:27:43.008Z,98424.94
2022-12-19T01:30:11.698Z,98426.42
2022-12-19T01:32:40.818Z,98419.60
2022-12-19T01:35:09.957Z,98417.64
2022-12-19T01:37:51.169Z,98416.54
2022-12-19T01:40:21.397Z,98414.38
2022-12-19T01:42:50.138Z,98411.48
2022-12-19T01:45:31.843Z,98410.79
2022-12-19T01:48:13.940Z,98409.52
2022-12-19T01:51:01.016Z,98405.73
2022-12-19T01:53:48.816Z,98405.96
2022-12-19T01:56:24.635Z,98400.80
2022-12-19T01:59:06.000Z,98400.55
2022-12-19T02:01:51.079Z,98402.75
2022-12-19T02:04:20.369Z,98403.34
2022-12-19T02:06:49.007Z,98405.74
2022-12-19T02:09:17.700Z,98397.56
2022-12-19T02:11:48.633Z,98393.53
2022-12-19T02:14:16.809Z,98392.66
2022-12-19T02:17:11.027Z,98391.59
2022-12-19T02:20:11.517Z,98392.02
2022-12-19T02:23:01.435Z,98395.88
2022-12-19T02:25:51.258Z,98393.77
2022-12-19T02:29:01.419Z,98393.70
2022-12-19T02:36:05.808Z,98393.04
2022-12-19T02:39:29.712Z,98399.45
2022-12-19T02:42:32.081Z,98401.42
2022-12-19T02:45:28.931Z,98406.10
2022-12-19T02:48:38.823Z,98408.70
2022-12-19T02:51:08.527Z,98406.58
2022-12-19T02:54:29.985Z,98407.48
2022-12-19T02:57:55.244Z,98407.18
2022-12-19T03:00:28.747Z,98407.96
2022-12-19T03:03:50.381Z,98412.13
2022-12-19T03:06:56.087Z,98411.31
2022-12-19T03:16:23.147Z,98418.21
2022-12-19T03:18:59.755Z,98421.54
2022-12-19T03:39:34.572Z,98430.70
2022-12-19T03:42:11.482Z,98438.36
2022-12-19T03:45:10.352Z,98439.38
2022-12-19T03:47:51.077Z,98443.22
2022-12-19T03:50:55.182Z,98440.44
2022-12-19T03:53:54.988Z,98440.50
2022-12-19T03:57:09.098Z,98440.45
2022-12-19T04:00:13.238Z,98445.92
2022-12-19T04:03:32.030Z,98446.29
2022-12-19T04:06:12.403Z,98447.95
2022-12-19T04:09:16.768Z,98449.64
2022-12-19T04:15:42.596Z,98448.05
2022-12-19T04:24:15.631Z,98447.21
2022-12-19T04:26:37.563Z,98445.30
2022-12-19T04:29:38.532Z,98443.86
2022-12-19T04:32:25.619Z,98446.10
2022-12-19T04:38:36.588Z,98448.90
2022-12-19T04:41:04.671Z,98453.09
2022-12-19T04:43:32.434Z,98449.58
2022-12-19T04:46:00.446Z,98450.55
2022-12-19T04:48:28.465Z,98453.18
2022-12-19T04:50:56.680Z,98459.02
2022-12-19T04:53:24.506Z,98465.37
2022-12-19T04:56:00.790Z,98471.42
2022-12-19T04:58:29.529Z,98473.65
2022-12-19T05:01:03.089Z,98473.61
2022-12-19T05:03:30.979Z,98472.11
2022-12-19T05:06:13.900Z,98478.36
2022-12-19T05:08:42.953Z,98478.23
2022-12-19T05:11:17.520Z,98481.70
2022-12-19T05:13:50.020Z,98488.61
2022-12-19T05:16:18.554Z,98491.94
2022-12-19T05:18:46.584Z,98498.05
2022-12-19T05:21:14.490Z,98496.41
2022-12-19T05:23:42.755Z,98493.21
2022-12-19T05:26:11.963Z,98493.92
2022-12-19T05:28:39.880Z,98498.64
2022-12-19T05:31:12.316Z,98495.64
2022-12-19T05:33:41.795Z,98494.50
2022-12-19T05:36:10.958Z,98491.21
2022-12-19T05:38:38.798Z,98487.64
2022-12-19T05:41:09.059Z,98481.85
2022-12-19T05:43:37.308Z,98480.30
2022-12-19T05:46:07.068Z,98479.80
2022-12-19T05:48:36.610Z,98483.27
2022-12-19T05:51:05.125Z,98484.80
2022-12-19T05:53:36.572Z,98482.56
2022-12-19T05:56:08.701Z,98480.25
2022-12-19T05:58:37.317Z,98476.58
2022-12-19T06:01:09.246Z,98481.73
2022-12-19T06:03:37.510Z,98483.63
2022-12-19T06:06:09.586Z,98482.65
2022-12-19T06:08:37.608Z,98480.99
2022-12-19T06:11:07.336Z,98479.09
2022-12-19T06:13:36.613Z,98478.65
2022-12-19T06:16:07.738Z,98482.73
2022-12-19T06:18:40.428Z,98482.05
2022-12-19T06:21:14.595Z,98485.86
2022-12-19T06:23:43.401Z,98482.19
2022-12-19T06:26:18.520Z,98482.17
2022-12-19T06:28:48.998Z,98483.46
2022-12-19T06:31:17.973Z,98482.90
2022-12-19T06:33:46.005Z,98489.69
2022-12-19T06:36:20.004Z,98491.13
2022-12-19T06:38:48.595Z,98498.63
2022-12-19T06:41:27.645Z,98502.09
2022-12-19T06:44:04.964Z,98504.62
2022-12-19T06:46:33.176Z,98507.51
2022-12-19T06:49:01.374Z,98504.45
2022-12-19T06:51:29.761Z,98504.91
2022-12-19T06:53:57.729Z,98508.73
2022-12-19T06:56:25.775Z,98506.84
2022-12-19T06:58:56.668Z,98504.60
2022-12-19T07:01:41.200Z,98503.92
2022-12-19T07:04:11.503Z,98498.70
2022-12-19T07:06:42.345Z,98501.69
2022-12-19T07:09:12.573Z,98501.70
2022-12-19T07:11:41.071Z,98504.04
2022-12-19T07:14:08.824Z,98506.30
2022-12-19T07:16:43.183Z,98506.45
2022-12-19T07:20:07.296Z,98503.38
2022-12-19T07:27:39.224Z,98503.47
2022-12-19T07:30:13.013Z,98500.15
2022-12-19T07:32:43.828Z,98496.21
2022-12-19T07:35:25.728Z,98495.63
2022-12-19T07:38:02.587Z,98494.90
2022-12-19T07:40:30.571Z,98496.66
2022-12-19T07:43:00.949Z,98497.02
2022-12-19T07:45:32.758Z,98502.60
2022-12-19T07:48:04.811Z,98507.76
2022-12-19T07:50:40.686Z,98505.77
2022-12-19T07:53:10.675Z,98506.66
2022-12-19T07:55:38.637Z,98509.08
2022-12-19T07:58:06.546Z,98506.14
2022-12-19T08:00:35.793Z,98508.81
2022-12-19T08:03:04.400Z,98514.09
2022-12-19T08:05:34.901Z,98510.20
2022-12-19T08:08:03.313Z,98508.27
2022-12-19T08:10:31.184Z,98508.64
2022-12-19T08:12:59.020Z,98516.58
2022-12-19T08:15:27.476Z,98520.92
2022-12-19T08:17:55.905Z,98519.14
2022-12-19T08:20:23.742Z,98518.39
2022-12-19T08:22:51.604Z,98519.72
2022-12-19T08:25:19.495Z,98514.70
2022-12-19T08:27:47.249Z,98522.27
2022-12-19T08:30:15.271Z,98530.23
2022-12-19T08:32:45.259Z,98529.70
2022-12-19T08:35:13.312Z,98531.73
2022-12-19T08:37:41.375Z,98532.52
2022-12-19T08:40:11.349Z,98535.60
2022-12-19T08:42:39.177Z,98531.35
2022-12-19T08:45:09.413Z,98532.13
2022-12-19T08:47:37.278Z,98532.17
2022-12-19T08:50:05.599Z,98528.17
2022-12-19T08:52:35.733Z,98523.02
2022-12-19T08:55:04.685Z,98518.55
2022-12-19T08:57:31.592Z,98518.84
2022-12-19T08:59:59.423Z,98515.28
2022-12-19T09:02:28.473Z,98518.22
2022-12-19T09:05:58.291Z,98518.16
2022-12-19T09:07:44.698Z,98517.30
2022-12-19T09:10:12.504Z,98516.66
2022-12-19T09:12:40.356Z,98512.10
2022-12-19T09:15:08.609Z,98505.48
2022-12-19T09:17:37.050Z,98502.24
2022-12-19T09:20:05.656Z,98498.96
2022-12-19T09:22:33.585Z,98498.16
2022-12-19T09:25:01.353Z,98499.55
2022-12-19T09:27:29.196Z,98494.27
2022-12-19T09:29:57.091Z,98494.05
2022-12-19T09:32:24.949Z,98489.08
2022-12-19T09:34:52.738Z,98494.36
2022-12-19T09:37:20.715Z,98490.48
2022-12-19T09:39:50.552Z,98492.36
2022-12-19T09:42:50.131Z,98494.48
2022-12-19T09:45:38.594Z,98496.38
2022-12-19T09:48:22.465Z,98494.98
2022-12-19T09:51:09.521Z,98492.34
2022-12-19T09:53:58.600Z,98495.12
2022-12-19T09:56:45.146Z,98493.27
2022-12-19T09:59:34.259Z,98495.24
2022-12-19T10:02:33.812Z,98491.87
2022-12-19T10:05:14.304Z,98487.98
2022-12-19T10:08:09.446Z,98479.48
2022-12-19T10:12:36.267Z,98481.02
2022-12-19T10:14:11.100Z,98470.52
2022-12-19T10:17:23.560Z,98468.54
2022-12-19T10:20:13.384Z,98470.13
2022-12-19T10:23:19.653Z,98466.23
2022-12-19T10:26:06.425Z,98459.42
2022-12-19T10:29:01.253Z,98448.63
2022-12-19T10:31:57.543Z,98447.96
2022-12-19T10:34:38.495Z,98443.32
2022-12-19T10:37:29.629Z,98442.58
2022-12-19T10:40:27.978Z,98439.95
2022-12-19T10:43:21.629Z,98438.08
2022-12-19T10:46:02.949Z,98438.17
2022-12-19T10:48:31.901Z,98435.20
2022-12-19T10:51:06.078Z,98431.65
2022-12-19T10:53:34.545Z,98429.83
2022-12-19T10:56:16.133Z,98426.98
2022-12-19T10:58:46.292Z,98420.57
2022-12-19T11:01:31.911Z,98418.95
2022-12-19T11:04:30.251Z,98416.09
2022-12-19T11:07:18.943Z,98418.65
2022-12-19T11:09:53.782Z,98419.42
2022-12-19T11:15:25.651Z,98419.98
2022-12-19T11:16:22.940Z,98418.27
2022-12-19T11:26:32.509Z,98416.43
2022-12-19T11:29:44.346Z,98415.77
2022-12-19T11:30:37.983Z,98415.25
2022-12-19T11:30:47.266Z,98411.20
2022-12-19T11:33:18.883Z,98408.79
2022-12-19T11:35:55.086Z,98403.11
2022-12-19T11:38:42.149Z,98406.00
2022-12-19T11:41:17.299Z,98408.85
2022-12-19T11:43:59.043Z,98404.54
2022-12-19T11:46:40.598Z,98400.13
2022-12-19T11:49:27.103Z,98398.01
2022-12-19T11:51:57.724Z,98396.28
2022-12-19T11:55:02.001Z,98392.17
2022-12-19T11:57:30.119Z,98389.09
2022-12-19T12:00:05.475Z,98385.44
2022-12-19T12:03:06.197Z,98384.92
2022-12-19T12:06:26.653Z,98388.11
2022-12-19T12:11:47.622Z,98392.07
2022-12-19T12:18:53.376Z,98391.59
2022-12-19T12:23:27.186Z,98400.66
2022-12-19T12:30:59.575Z,98405.05
2022-12-19T12:31:15.426Z,98407.23
2022-12-19T12:31:55.169Z,98414.98
2022-12-19T12:32:05.068Z,98418.31
2022-12-19T12:35:38.190Z,98421.21
2022-12-19T12:35:51.084Z,98420.14
2022-12-19T12:38:22.999Z,98406.23
2022-12-19T12:41:21.647Z,98391.23
2022-12-19T12:44:08.541Z,98382.98
2022-12-19T12:47:01.553Z,98372.59
2022-12-19T12:49:45.320Z,98366.81
2022-12-19T12:52:18.736Z,98366.89
2022-12-19T12:54:55.390Z,98370.57
2022-12-19T12:57:36.865Z,98375.19
2022-12-19T13:00:22.297Z,98390.50
2022-12-19T13:03:09.899Z,98386.84
2022-12-19T13:06:33.172Z,98383.38
2022-12-19T13:09:28.515Z,98383.77
2022-12-19T13:12:19.638Z,98384.05
2022-12-19T13:15:17.055Z,98382.14
2022-12-19T13:19:28.273Z,98387.95
2022-12-19T13:22:26.433Z,98389.56
2022-12-19T13:25:29.400Z,98386.13
2022-12-19T13:28:59.981Z,98384.58
2022-12-19T13:32:23.318Z,98391.62
2022-12-19T13:39:51.037Z,98386.59
2022-12-19T13:45:15.110Z,98386.73
2022-12-19T13:48:04.187Z,98384.27
2022-12-19T13:51:54.482Z,98379.33
2022-12-19T13:57:09.280Z,98386.44
2022-12-19T14:00:18.056Z,98395.62
2022-12-19T14:03:37.838Z,98394.72
2022-12-19T14:07:51.706Z,98385.84
2022-12-19T14:11:35.089Z,98391.33
2022-12-19T14:14:28.093Z,98395.91
2022-12-19T14:17:42.393Z,98394.50
2022-12-19T14:22:01.868Z,98394.31
2022-12-19T14:23:44.256Z,98391.36
2022-12-19T14:28:17.936Z,98391.41
2022-12-19T14:30:26.129Z,98393.20
2022-12-19T14:33:44.055Z,98383.70
2022-12-19T14:36:06.874Z,98387.32
2022-12-19T14:39:36.685Z,98392.79
2022-12-19T14:43:57.044Z,98397.02
2022-12-19T14:54:05.913Z,98392.74
2022-12-19T14:54:33.979Z,98382.86
2022-12-19T14:57:03.806Z,98391.02
2022-12-19T14:59:48.031Z,98392.29
2022-12-19T15:02:34.359Z,98391.55
2022-12-19T15:05:36.497Z,98392.52
2022-12-19T15:08:17.252Z,98388.36
2022-12-19T15:11:34.891Z,98395.44
2022-12-19T15:14:54.786Z,98394.24
2022-12-19T15:17:44.372Z,98390.75
2022-12-19T15:20:29.375Z,98389.86
2022-12-19T15:23:04.839Z,98382.86
2022-12-19T15:26:07.688Z,98384.38
2022-12-19T15:28:41.923Z,98392.21
2022-12-19T15:31:38.572Z,98389.36
2022-12-19T15:34:38.374Z,98388.47
2022-12-19T15:37:23.245Z,98373.92
2022-12-19T15:39:55.404Z,98371.47
2022-12-19T15:43:29.959Z,98372.77
2022-12-19T15:46:16.671Z,98377.07
2022-12-19T15:50:18.351Z,98376.15
2022-12-19T15:57:09.627Z,98365.56
2022-12-19T16:06:30.135Z,98357.81
2022-12-19T16:08:58.513Z,98354.84
2022-12-19T16:11:26.344Z,98348.53
2022-12-19T16:13:57.983Z,98350.39
2022-12-19T16:16:25.827Z,98356.87
2022-12-19T16:18:53.712Z,98359.67
2022-12-19T16:21:31.542Z,98356.73
2022-12-19T16:24:01.702Z,98352.38
2022-12-19T16:26:40.331Z,98356.64
2022-12-19T16:29:20.335Z,98357.33
2022-12-19T16:31:48.725Z,98353.77
2022-12-19T16:34:19.589Z,98357.58
2022-12-19T16:36:47.924Z,98351.95
2022-12-19T16:39:16.459Z,98349.80
2022-12-19T16:41:45.430Z,98345.77
2022-12-19T16:44:19.927Z,98348.80
2022-12-19T16:46:51.270Z,98353.48
2022-12-19T16:49:23.505Z,98349.34
2022-12-19T16:51:52.107Z,98347.98
2022-12-19T16:54:20.196Z,98350.95
2022-12-19T16:56:51.608Z,98351.15
2022-12-19T16:59:25.718Z,98348.60
2022-12-19T17:01:54.135Z,98340.72
2022-12-19T17:04:24.528Z,98343.17
2022-12-19T17:06:54.254Z,98341.11
2022-12-19T17:09:24.494Z,98338.06
2022-12-19T17:11:58.016Z,98331.71
2022-12-19T17:14:29.631Z,98333.02
2022-12-19T17:16:59.465Z,98325.02
2022-12-19T17:19:35.928Z,98325.38
2022-12-19T17:22:03.694Z,98324.13
2022-12-19T17:24:31.494Z,98325.40
2022-12-19T17:26:59.199Z,98331.55
2022-12-19T17:29:26.963Z,98329.38
2022-12-19T17:31:55.301Z,98327.35
2022-12-19T17:34:30.356Z,98323.67
2022-12-19T17:37:00.548Z,98326.49
2022-12-19T17:39:31.974Z,98322.42
2022-12-19T17:42:06.795Z,98330.94
2022-12-19T17:44:34.512Z,98329.78
2022-12-19T17:47:02.386Z,98325.50
2022-12-19T17:49:31.649Z,98327.33
2022-12-19T17:52:00.257Z,98329.05
2022-12-19T17:54:27.972Z,98328.08
2022-12-19T17:56:55.861Z,98319.08
2022-12-19T17:59:23.618Z,98315.17
2022-12-19T18:01:51.717Z,98313.86
2022-12-19T18:04:21.573Z,98307.69
2022-12-19T18:06:49.564Z,98305.67
2022-12-19T18:09:20.395Z,98307.94
2022-12-19T18:11:49.593Z,98307.70
2022-12-19T18:14:18.391Z,98306.06
2022-12-19T18:16:49.134Z,98304.55
2022-12-19T18:19:23.450Z,98305.89
2022-12-19T18:21:51.915Z,98309.09
2022-12-19T18:24:19.754Z,98298.52
2022-12-19T18:26:47.827Z,98298.23
2022-12-19T18:29:16.607Z,98302.54
2022-12-19T18:31:50.469Z,98303.69
2022-12-19T18:34:22.955Z,98299.37
2022-12-19T18:36:51.867Z,98305.98
2022-12-19T18:39:29.105Z,98306.25
2022-12-19T18:41:56.862Z,98295.90
2022-12-19T18:44:24.661Z,98293.91
2022-12-19T18:46:52.971Z,98292.15
2022-12-19T18:49:20.964Z,98279.84
2022-12-19T18:51:48.779Z,98278.34
2022-12-19T18:54:20.084Z,98274.90
2022-12-19T18:56:48.432Z,98272.00
2022-12-19T18:59:16.200Z,98273.58
2022-12-19T19:01:47.837Z,98275.15
2022-12-19T19:04:17.770Z,98271.15
2022-12-19T19:06:51.706Z,98267.02
2022-12-19T19:09:21.358Z,98264.04
2022-12-19T19:12:09.113Z,98264.95
2022-12-19T19:14:36.944Z,98263.77
2022-12-19T19:17:06.409Z,98264.54
2022-12-19T19:19:34.253Z,98258.91
2022-12-19T19:22:02.120Z,98259.55
2022-12-19T19:24:30.080Z,98260.66
2022-12-19T19:26:57.850Z,98256.95
2022-12-19T19:29:26.114Z,98251.56
2022-12-19T19:31:53.971Z,98244.59
2022-12-19T19:34:27.439Z,98243.65
2022-12-19T19:36:59.115Z,98239.52
2022-12-19T19:39:28.529Z,98236.80
2022-12-19T19:41:56.446Z,98239.19
2022-12-19T19:44:24.273Z,98243.60
2022-12-19T19:46:52.102Z,98241.10
2022-12-19T19:49:20.862Z,98236.84
2022-12-19T19:51:48.649Z,98236.66
2022-12-19T19:54:16.599Z,98228.38
2022-12-19T19:56:44.298Z,98228.88
2022-12-19T19:59:12.149Z,98229.38
2022-12-19T20:01:40.229Z,98226.61
2022-12-19T20:04:08.109Z,98231.12
2022-12-19T20:06:36.211Z,98238.80
2022-12-19T20:09:04.364Z,98240.35
2022-12-19T20:11:32.271Z,98241.53
2022-12-19T20:14:00.072Z,98236.92
2022-12-19T20:16:28.195Z,98232.04
2022-12-19T20:18:56.018Z,98234.54
2022-12-19T20:21:24.721Z,98230.31
2022-12-19T20:23:56.664Z,98229.80
2022-12-19T20:26:24.522Z,98228.66
2022-12-19T20:28:52.363Z,98221.56
2022-12-19T20:31:23.150Z,98223.89
2022-12-19T20:33:53.581Z,98227.02
2022-12-19T20:36:22.625Z,98228.75
2022-12-19T20:38:50.816Z,98225.14
2022-12-19T20:41:19.421Z,98227.33
2022-12-19T20:43:48.153Z,98230.38
2022-12-19T20:46:18.477Z,98228.05
2022-12-19T20:48:47.745Z,98218.98
2022-12-19T20:51:16.727Z,98213.79
2022-12-19T20:53:45.045Z,98208.92
2022-12-19T20:56:17.619Z,98209.23
2022-12-19T20:58:46.204Z,98215.46
2022-12-19T21:01:18.305Z,98221.11
2022-12-19T21:03:48.296Z,98221.88
2022-12-19T21:06:19.803Z,98220.55
2022-12-19T21:08:48.354Z,98217.20
2022-12-19T21:11:16.236Z,98221.34
2022-12-19T21:13:44.675Z,98222.27
2022-12-19T21:16:16.448Z,98221.64
2022-12-19T21:18:45.893Z,98226.85
2022-12-19T21:21:18.099Z,98219.17
2022-12-19T21:23:46.157Z,98223.45
2022-12-19T21:26:14.147Z,98222.06
2022-12-19T21:28:42.067Z,98222.89
2022-12-19T21:31:25.049Z,98223.11
2022-12-19T21:33:55.487Z,98215.82
2022-12-19T21:36:25.089Z,98210.61
2022-12-19T21:38:55.900Z,98207.96
2022-12-19T21:41:24.119Z,98214.61
2022-12-19T21:43:54.125Z,98213.01
2022-12-19T21:46:26.513Z,98212.90
2022-12-19T21:48:56.186Z,98207.88
2022-12-19T21:51:27.988Z,98210.96
2022-12-19T21:53:58.277Z,98211.61
2022-12-19T21:56:31.986Z,98211.95
2022-12-19T21:59:03.209Z,98208.25
2022-12-19T22:01:32.724Z,98210.34
2022-12-19T22:04:03.474Z,98207.14
2022-12-19T22:06:33.747Z,98214.41
2022-12-19T22:09:02.749Z,98207.72
2022-12-19T22:11:31.349Z,98204.90
2022-12-19T22:14:01.015Z,98205.55
2022-12-19T22:16:29.264Z,98198.02
2022-12-19T22:18:57.443Z,98193.80
2022-12-19T22:21:25.728Z,98191.61
2022-12-19T22:23:58.364Z,98187.34
2022-12-19T22:26:28.827Z,98186.95
2022-12-19T22:28:57.893Z,98179.34
2022-12-19T22:31:34.607Z,98181.30
2022-12-19T22:34:05.777Z,98177.88
2022-12-19T22:36:35.954Z,98171.66
2022-12-19T22:39:09.034Z,98167.52
2022-12-19T22:41:38.280Z,98164.82
2022-12-19T22:44:06.779Z,98162.87
2022-12-19T22:46:37.044Z,98160.89
2022-12-19T22:49:07.328Z,98156.11
2022-12-19T22:51:36.963Z,98153.98
2022-12-19T22:54:05.800Z,98152.53
2022-12-19T22:56:34.699Z,98152.23
2022-12-19T22:59:06.144Z,98152.59
2022-12-19T23:01:38.125Z,98148.63
2022-12-19T23:04:08.199Z,98146.11
2022-12-19T23:06:37.674Z,98146.91
2022-12-19T23:09:08.508Z,98145.82
2022-12-19T23:11:39.012Z,98143.42
2022-12-19T23:14:10.050Z,98141.02
2022-12-19T23:16:37.969Z,98143.67
2022-12-19T23:19:06.634Z,98139.95
2022-12-19T23:21:35.269Z,98135.89
2022-12-19T23:24:03.432Z,98133.39
2022-12-19T23:26:35.589Z,98132.66
2022-12-19T23:29:07.353Z,98128.77
2022-12-19T23:31:38.629Z,98122.93
2022-12-19T23:34:06.482Z,98119.94
2022-12-19T23:39:22.293Z,98116.27
2022-12-19T23:41:50.165Z,98112.29
2022-12-19T23:44:18.168Z,98109.27
2022-12-19T23:46:46.039Z,98112.77
2022-12-19T23:49:14.218Z,98111.52
2022-12-19T23:51:42.089Z,98112.27
2022-12-19T23:54:10.047Z,98111.85
2022-12-19T23:56:37.886Z,98112.52
2022-12-19T23:59:05.872Z,98118.00
